sensor_id;sensor_type;location;lat;lon;timestamp;P1;durP1;ratioP1;P2;durP2;ratioP2
39264;SDS011;42646;51.910;7.724;2023-09-07T00:02:11;4.90;;;3.25;;
39264;SDS011;42646;51.910;7.724;2023-09-07T00:04:40;6.63;;;3.35;;
39264;SDS011;42646;51.910;7.724;2023-09-07T00:07:11;4.90;;;3.50;;
39264;SDS011;42646;51.910;7.724;2023-09-07T00:09:39;7.07;;;3.40;;
39264;SDS011;42646;51.910;7.724;2023-09-07T00:12:07;4.28;;;3.30;;
39264;SDS011;42646;51.910;7.724;2023-09-07T00:14:35;4.20;;;3.05;;
39264;SDS011;42646;51.910;7.724;2023-09-07T00:17:04;4.78;;;3.05;;
39264;SDS011;42646;51.910;7.724;2023-09-07T00:19:32;4.70;;;3.25;;
39264;SDS011;42646;51.910;7.724;2023-09-07T00:22:06;4.25;;;3.13;;
39264;SDS011;42646;51.910;7.724;2023-09-07T00:24:37;4.78;;;3.25;;
39264;SDS011;42646;51.910;7.724;2023-09-07T00:27:31;4.60;;;3.30;;
39264;SDS011;42646;51.910;7.724;2023-09-07T00:29:58;5.22;;;3.00;;
39264;SDS011;42646;51.910;7.724;2023-09-07T00:32:26;4.88;;;3.47;;
39264;SDS011;42646;51.910;7.724;2023-09-07T00:34:54;4.72;;;3.25;;
39264;SDS011;42646;51.910;7.724;2023-09-07T00:37:22;5.45;;;3.20;;
39264;SDS011;42646;51.910;7.724;2023-09-07T00:39:51;5.50;;;3.20;;
39264;SDS011;42646;51.910;7.724;2023-09-07T00:42:20;4.75;;;3.05;;
39264;SDS011;42646;51.910;7.724;2023-09-07T00:47:41;4.22;;;2.90;;
39264;SDS011;42646;51.910;7.724;2023-09-07T00:50:34;5.43;;;3.30;;
39264;SDS011;42646;51.910;7.724;2023-09-07T00:53:02;5.00;;;3.30;;
39264;SDS011;42646;51.910;7.724;2023-09-07T00:55:34;5.28;;;3.10;;
39264;SDS011;42646;51.910;7.724;2023-09-07T00:58:03;4.65;;;2.90;;
39264;SDS011;42646;51.910;7.724;2023-09-07T01:00:32;4.80;;;3.40;;
39264;SDS011;42646;51.910;7.724;2023-09-07T01:03:01;5.38;;;3.10;;
39264;SDS011;42646;51.910;7.724;2023-09-07T01:05:32;4.68;;;3.33;;
39264;SDS011;42646;51.910;7.724;2023-09-07T01:08:06;4.93;;;3.22;;
39264;SDS011;42646;51.910;7.724;2023-09-07T01:10:40;6.30;;;3.63;;
39264;SDS011;42646;51.910;7.724;2023-09-07T01:13:10;4.68;;;3.30;;
39264;SDS011;42646;51.910;7.724;2023-09-07T01:15:39;5.28;;;3.40;;
39264;SDS011;42646;51.910;7.724;2023-09-07T01:18:09;4.88;;;3.40;;
39264;SDS011;42646;51.910;7.724;2023-09-07T01:20:51;5.30;;;3.30;;
39264;SDS011;42646;51.910;7.724;2023-09-07T01:23:22;4.60;;;3.80;;
39264;SDS011;42646;51.910;7.724;2023-09-07T01:25:51;3.97;;;3.00;;
39264;SDS011;42646;51.910;7.724;2023-09-07T01:28:20;5.40;;;3.30;;
39264;SDS011;42646;51.910;7.724;2023-09-07T01:30:48;4.88;;;3.55;;
39264;SDS011;42646;51.910;7.724;2023-09-07T01:33:18;5.10;;;3.30;;
39264;SDS011;42646;51.910;7.724;2023-09-07T01:35:46;5.25;;;3.40;;
39264;SDS011;42646;51.910;7.724;2023-09-07T01:38:14;4.65;;;3.30;;
39264;SDS011;42646;51.910;7.724;2023-09-07T01:40:43;5.32;;;3.35;;
39264;SDS011;42646;51.910;7.724;2023-09-07T01:43:12;5.75;;;3.55;;
39264;SDS011;42646;51.910;7.724;2023-09-07T01:45:40;5.13;;;3.50;;
39264;SDS011;42646;51.910;7.724;2023-09-07T01:48:11;4.97;;;3.30;;
39264;SDS011;42646;51.910;7.724;2023-09-07T01:53:10;6.03;;;3.53;;
39264;SDS011;42646;51.910;7.724;2023-09-07T01:55:38;5.85;;;3.60;;
39264;SDS011;42646;51.910;7.724;2023-09-07T01:58:09;5.15;;;3.30;;
39264;SDS011;42646;51.910;7.724;2023-09-07T02:00:39;4.37;;;3.17;;
39264;SDS011;42646;51.910;7.724;2023-09-07T02:03:08;5.57;;;3.60;;
39264;SDS011;42646;51.910;7.724;2023-09-07T02:05:37;5.30;;;3.40;;
39264;SDS011;42646;51.910;7.724;2023-09-07T02:08:07;5.53;;;3.30;;
39264;SDS011;42646;51.910;7.724;2023-09-07T02:10:35;4.80;;;3.40;;
39264;SDS011;42646;51.910;7.724;2023-09-07T02:13:03;6.22;;;3.83;;
39264;SDS011;42646;51.910;7.724;2023-09-07T02:15:32;7.03;;;3.95;;
39264;SDS011;42646;51.910;7.724;2023-09-07T02:18:03;4.55;;;3.53;;
39264;SDS011;42646;51.910;7.724;2023-09-07T02:20:32;5.63;;;3.88;;
39264;SDS011;42646;51.910;7.724;2023-09-07T02:23:00;4.65;;;3.42;;
39264;SDS011;42646;51.910;7.724;2023-09-07T02:25:29;6.18;;;3.80;;
39264;SDS011;42646;51.910;7.724;2023-09-07T02:27:57;6.03;;;3.70;;
39264;SDS011;42646;51.910;7.724;2023-09-07T02:30:26;5.28;;;3.92;;
39264;SDS011;42646;51.910;7.724;2023-09-07T02:32:56;5.28;;;3.70;;
39264;SDS011;42646;51.910;7.724;2023-09-07T02:35:26;5.15;;;3.80;;
39264;SDS011;42646;51.910;7.724;2023-09-07T02:37:54;5.85;;;3.92;;
39264;SDS011;42646;51.910;7.724;2023-09-07T02:40:22;5.15;;;3.88;;
39264;SDS011;42646;51.910;7.724;2023-09-07T02:42:51;5.43;;;4.03;;
39264;SDS011;42646;51.910;7.724;2023-09-07T02:45:19;5.32;;;3.72;;
39264;SDS011;42646;51.910;7.724;2023-09-07T02:47:47;5.35;;;3.70;;
39264;SDS011;42646;51.910;7.724;2023-09-07T02:50:18;7.30;;;4.22;;
39264;SDS011;42646;51.910;7.724;2023-09-07T02:52:46;5.78;;;3.63;;
39264;SDS011;42646;51.910;7.724;2023-09-07T02:55:19;6.95;;;3.50;;
39264;SDS011;42646;51.910;7.724;2023-09-07T02:57:50;5.63;;;3.75;;
39264;SDS011;42646;51.910;7.724;2023-09-07T03:00:18;6.65;;;3.70;;
39264;SDS011;42646;51.910;7.724;2023-09-07T03:02:47;5.47;;;3.58;;
39264;SDS011;42646;51.910;7.724;2023-09-07T03:05:15;5.20;;;3.63;;
39264;SDS011;42646;51.910;7.724;2023-09-07T03:07:46;5.68;;;3.53;;
39264;SDS011;42646;51.910;7.724;2023-09-07T03:10:17;6.03;;;3.75;;
39264;SDS011;42646;51.910;7.724;2023-09-07T03:12:46;5.72;;;3.85;;
39264;SDS011;42646;51.910;7.724;2023-09-07T03:15:14;5.90;;;4.00;;
39264;SDS011;42646;51.910;7.724;2023-09-07T03:17:44;5.53;;;3.92;;
39264;SDS011;42646;51.910;7.724;2023-09-07T03:20:12;5.82;;;4.22;;
39264;SDS011;42646;51.910;7.724;2023-09-07T03:22:48;5.97;;;4.13;;
39264;SDS011;42646;51.910;7.724;2023-09-07T03:25:16;5.82;;;4.32;;
39264;SDS011;42646;51.910;7.724;2023-09-07T03:27:44;7.72;;;4.35;;
39264;SDS011;42646;51.910;7.724;2023-09-07T03:30:13;5.95;;;4.15;;
39264;SDS011;42646;51.910;7.724;2023-09-07T03:32:41;5.97;;;4.38;;
39264;SDS011;42646;51.910;7.724;2023-09-07T03:35:10;5.03;;;3.60;;
39264;SDS011;42646;51.910;7.724;2023-09-07T03:37:38;5.60;;;4.13;;
39264;SDS011;42646;51.910;7.724;2023-09-07T03:40:08;5.28;;;3.72;;
39264;SDS011;42646;51.910;7.724;2023-09-07T03:42:38;5.15;;;3.80;;
39264;SDS011;42646;51.910;7.724;2023-09-07T03:45:08;6.80;;;4.47;;
39264;SDS011;42646;51.910;7.724;2023-09-07T03:47:37;6.35;;;3.38;;
39264;SDS011;42646;51.910;7.724;2023-09-07T03:50:07;5.35;;;3.40;;
39264;SDS011;42646;51.910;7.724;2023-09-07T03:52:36;5.38;;;3.78;;
39264;SDS011;42646;51.910;7.724;2023-09-07T03:55:08;5.45;;;3.70;;
39264;SDS011;42646;51.910;7.724;2023-09-07T04:00:06;5.97;;;3.38;;
39264;SDS011;42646;51.910;7.724;2023-09-07T04:02:45;4.90;;;3.35;;
39264;SDS011;42646;51.910;7.724;2023-09-07T04:05:38;5.55;;;3.70;;
39264;SDS011;42646;51.910;7.724;2023-09-07T04:08:08;5.88;;;3.70;;
39264;SDS011;42646;51.910;7.724;2023-09-07T04:10:37;6.45;;;4.03;;
39264;SDS011;42646;51.910;7.724;2023-09-07T04:13:06;5.70;;;4.05;;
39264;SDS011;42646;51.910;7.724;2023-09-07T04:15:41;5.85;;;4.22;;
39264;SDS011;42646;51.910;7.724;2023-09-07T04:18:14;6.60;;;4.10;;
39264;SDS011;42646;51.910;7.724;2023-09-07T04:20:44;4.75;;;3.60;;
39264;SDS011;42646;51.910;7.724;2023-09-07T04:23:13;4.97;;;3.50;;
39264;SDS011;42646;51.910;7.724;2023-09-07T04:25:42;6.47;;;3.88;;
39264;SDS011;42646;51.910;7.724;2023-09-07T04:28:11;5.75;;;3.78;;
39264;SDS011;42646;51.910;7.724;2023-09-07T04:30:39;5.57;;;3.80;;
39264;SDS011;42646;51.910;7.724;2023-09-07T04:33:09;5.18;;;3.80;;
39264;SDS011;42646;51.910;7.724;2023-09-07T04:35:39;5.28;;;3.63;;
39264;SDS011;42646;51.910;7.724;2023-09-07T04:38:07;5.75;;;4.10;;
39264;SDS011;42646;51.910;7.724;2023-09-07T04:40:36;5.30;;;4.00;;
39264;SDS011;42646;51.910;7.724;2023-09-07T04:43:29;6.20;;;3.88;;
39264;SDS011;42646;51.910;7.724;2023-09-07T04:45:57;6.75;;;4.18;;
39264;SDS011;42646;51.910;7.724;2023-09-07T04:48:25;5.50;;;3.92;;
39264;SDS011;42646;51.910;7.724;2023-09-07T04:50:59;4.55;;;3.50;;
39264;SDS011;42646;51.910;7.724;2023-09-07T04:53:27;5.47;;;3.90;;
39264;SDS011;42646;51.910;7.724;2023-09-07T04:55:57;6.72;;;3.70;;
39264;SDS011;42646;51.910;7.724;2023-09-07T04:58:25;4.93;;;3.60;;
39264;SDS011;42646;51.910;7.724;2023-09-07T05:01:20;5.20;;;3.97;;
39264;SDS011;42646;51.910;7.724;2023-09-07T05:03:50;5.95;;;3.60;;
39264;SDS011;42646;51.910;7.724;2023-09-07T05:06:18;5.05;;;3.50;;
39264;SDS011;42646;51.910;7.724;2023-09-07T05:08:48;5.85;;;3.85;;
39264;SDS011;42646;51.910;7.724;2023-09-07T05:11:18;6.85;;;3.85;;
39264;SDS011;42646;51.910;7.724;2023-09-07T05:13:52;6.45;;;4.22;;
39264;SDS011;42646;51.910;7.724;2023-09-07T05:16:21;5.05;;;3.42;;
39264;SDS011;42646;51.910;7.724;2023-09-07T05:18:50;7.00;;;4.10;;
39264;SDS011;42646;51.910;7.724;2023-09-07T05:21:18;6.00;;;3.80;;
39264;SDS011;42646;51.910;7.724;2023-09-07T05:23:46;7.05;;;4.18;;
39264;SDS011;42646;51.910;7.724;2023-09-07T05:26:14;5.22;;;3.80;;
39264;SDS011;42646;51.910;7.724;2023-09-07T05:28:42;5.38;;;4.00;;
39264;SDS011;42646;51.910;7.724;2023-09-07T05:31:12;5.22;;;3.97;;
39264;SDS011;42646;51.910;7.724;2023-09-07T05:33:42;5.85;;;4.10;;
39264;SDS011;42646;51.910;7.724;2023-09-07T05:36:10;7.80;;;5.75;;
39264;SDS011;42646;51.910;7.724;2023-09-07T05:38:38;7.55;;;4.78;;
39264;SDS011;42646;51.910;7.724;2023-09-07T05:41:06;9.38;;;5.00;;
39264;SDS011;42646;51.910;7.724;2023-09-07T05:43:34;8.13;;;4.88;;
39264;SDS011;42646;51.910;7.724;2023-09-07T05:46:02;7.10;;;5.10;;
39264;SDS011;42646;51.910;7.724;2023-09-07T05:48:30;9.80;;;6.38;;
39264;SDS011;42646;51.910;7.724;2023-09-07T05:51:00;8.77;;;5.28;;
39264;SDS011;42646;51.910;7.724;2023-09-07T05:53:29;9.27;;;5.40;;
39264;SDS011;42646;51.910;7.724;2023-09-07T05:55:59;6.60;;;4.88;;
39264;SDS011;42646;51.910;7.724;2023-09-07T05:58:27;7.60;;;5.15;;
39264;SDS011;42646;51.910;7.724;2023-09-07T06:00:56;8.23;;;5.00;;
39264;SDS011;42646;51.910;7.724;2023-09-07T06:03:24;7.90;;;5.10;;
39264;SDS011;42646;51.910;7.724;2023-09-07T06:05:54;8.27;;;5.25;;
39264;SDS011;42646;51.910;7.724;2023-09-07T06:08:24;8.13;;;5.07;;
39264;SDS011;42646;51.910;7.724;2023-09-07T06:10:53;6.38;;;5.03;;
39264;SDS011;42646;51.910;7.724;2023-09-07T06:13:21;8.07;;;5.10;;
39264;SDS011;42646;51.910;7.724;2023-09-07T06:15:54;8.23;;;5.05;;
39264;SDS011;42646;51.910;7.724;2023-09-07T06:18:47;7.50;;;5.05;;
39264;SDS011;42646;51.910;7.724;2023-09-07T06:21:15;6.90;;;4.53;;
39264;SDS011;42646;51.910;7.724;2023-09-07T06:23:45;6.85;;;5.00;;
39264;SDS011;42646;51.910;7.724;2023-09-07T06:26:13;8.85;;;5.18;;
39264;SDS011;42646;51.910;7.724;2023-09-07T06:28:45;7.13;;;4.97;;
39264;SDS011;42646;51.910;7.724;2023-09-07T06:31:13;6.95;;;5.30;;
39264;SDS011;42646;51.910;7.724;2023-09-07T06:36:12;7.28;;;4.60;;
39264;SDS011;42646;51.910;7.724;2023-09-07T06:38:42;7.07;;;4.93;;
39264;SDS011;42646;51.910;7.724;2023-09-07T06:41:11;6.47;;;4.70;;
39264;SDS011;42646;51.910;7.724;2023-09-07T06:43:40;5.65;;;4.43;;
39264;SDS011;42646;51.910;7.724;2023-09-07T06:46:09;5.95;;;4.40;;
39264;SDS011;42646;51.910;7.724;2023-09-07T06:48:37;6.40;;;4.97;;
39264;SDS011;42646;51.910;7.724;2023-09-07T06:51:05;7.25;;;5.07;;
39264;SDS011;42646;51.910;7.724;2023-09-07T06:53:34;7.60;;;4.95;;
39264;SDS011;42646;51.910;7.724;2023-09-07T06:56:25;6.13;;;4.35;;
39264;SDS011;42646;51.910;7.724;2023-09-07T06:58:54;7.20;;;5.15;;
39264;SDS011;42646;51.910;7.724;2023-09-07T07:01:47;6.28;;;4.78;;
39264;SDS011;42646;51.910;7.724;2023-09-07T07:04:15;6.68;;;4.90;;
39264;SDS011;42646;51.910;7.724;2023-09-07T07:06:46;5.82;;;4.38;;
39264;SDS011;42646;51.910;7.724;2023-09-07T07:09:16;5.90;;;4.38;;
39264;SDS011;42646;51.910;7.724;2023-09-07T07:11:45;6.32;;;4.40;;
39264;SDS011;42646;51.910;7.724;2023-09-07T07:14:13;6.07;;;4.30;;
39264;SDS011;42646;51.910;7.724;2023-09-07T07:16:43;5.05;;;3.90;;
39264;SDS011;42646;51.910;7.724;2023-09-07T07:19:11;6.28;;;4.10;;
39264;SDS011;42646;51.910;7.724;2023-09-07T07:21:44;5.00;;;3.90;;
39264;SDS011;42646;51.910;7.724;2023-09-07T07:24:38;5.68;;;3.80;;
39264;SDS011;42646;51.910;7.724;2023-09-07T07:27:10;6.13;;;4.18;;
39264;SDS011;42646;51.910;7.724;2023-09-07T07:29:38;4.82;;;3.60;;
39264;SDS011;42646;51.910;7.724;2023-09-07T07:32:07;5.20;;;3.80;;
39264;SDS011;42646;51.910;7.724;2023-09-07T07:34:39;4.82;;;3.60;;
39264;SDS011;42646;51.910;7.724;2023-09-07T07:37:07;4.95;;;3.70;;
39264;SDS011;42646;51.910;7.724;2023-09-07T07:39:35;5.13;;;3.88;;
39264;SDS011;42646;51.910;7.724;2023-09-07T07:42:03;5.15;;;3.63;;
39264;SDS011;42646;51.910;7.724;2023-09-07T07:44:33;5.50;;;4.05;;
39264;SDS011;42646;51.910;7.724;2023-09-07T07:47:03;5.28;;;3.72;;
39264;SDS011;42646;51.910;7.724;2023-09-07T07:49:31;5.80;;;3.80;;
39264;SDS011;42646;51.910;7.724;2023-09-07T07:52:00;7.75;;;3.80;;
39264;SDS011;42646;51.910;7.724;2023-09-07T07:54:30;4.95;;;3.60;;
39264;SDS011;42646;51.910;7.724;2023-09-07T07:57:02;5.22;;;3.45;;
39264;SDS011;42646;51.910;7.724;2023-09-07T07:59:33;4.60;;;3.63;;
39264;SDS011;42646;51.910;7.724;2023-09-07T08:02:04;5.22;;;3.35;;
39264;SDS011;42646;51.910;7.724;2023-09-07T08:04:33;5.70;;;3.28;;
39264;SDS011;42646;51.910;7.724;2023-09-07T08:07:03;5.00;;;3.42;;
39264;SDS011;42646;51.910;7.724;2023-09-07T08:09:33;3.65;;;2.90;;
39264;SDS011;42646;51.910;7.724;2023-09-07T08:12:02;4.63;;;3.03;;
39264;SDS011;42646;51.910;7.724;2023-09-07T08:14:34;5.40;;;3.67;;
39264;SDS011;42646;51.910;7.724;2023-09-07T08:17:03;5.20;;;3.45;;
39264;SDS011;42646;51.910;7.724;2023-09-07T08:19:31;5.18;;;3.50;;
39264;SDS011;42646;51.910;7.724;2023-09-07T08:22:00;4.93;;;3.33;;
39264;SDS011;42646;51.910;7.724;2023-09-07T08:24:31;5.88;;;3.33;;
39264;SDS011;42646;51.910;7.724;2023-09-07T08:27:00;6.30;;;3.45;;
39264;SDS011;42646;51.910;7.724;2023-09-07T08:29:28;4.57;;;3.25;;
39264;SDS011;42646;51.910;7.724;2023-09-07T08:32:00;4.55;;;3.30;;
39264;SDS011;42646;51.910;7.724;2023-09-07T08:34:31;4.40;;;3.17;;
39264;SDS011;42646;51.910;7.724;2023-09-07T08:37:02;4.68;;;3.47;;
39264;SDS011;42646;51.910;7.724;2023-09-07T08:39:33;4.68;;;3.08;;
39264;SDS011;42646;51.910;7.724;2023-09-07T08:42:02;4.93;;;3.20;;
39264;SDS011;42646;51.910;7.724;2023-09-07T08:44:31;5.20;;;3.30;;
39264;SDS011;42646;51.910;7.724;2023-09-07T08:47:03;5.72;;;3.30;;
39264;SDS011;42646;51.910;7.724;2023-09-07T08:52:04;5.25;;;3.40;;
39264;SDS011;42646;51.910;7.724;2023-09-07T08:54:35;4.67;;;3.40;;
39264;SDS011;42646;51.910;7.724;2023-09-07T08:57:04;4.65;;;3.35;;
39264;SDS011;42646;51.910;7.724;2023-09-07T08:59:33;6.28;;;3.58;;
39264;SDS011;42646;51.910;7.724;2023-09-07T09:02:03;6.00;;;3.60;;
39264;SDS011;42646;51.910;7.724;2023-09-07T09:04:37;4.53;;;3.20;;
39264;SDS011;42646;51.910;7.724;2023-09-07T09:07:05;4.93;;;3.20;;
39264;SDS011;42646;51.910;7.724;2023-09-07T09:09:33;5.47;;;3.53;;
39264;SDS011;42646;51.910;7.724;2023-09-07T09:12:06;4.90;;;3.67;;
39264;SDS011;42646;51.910;7.724;2023-09-07T09:14:36;6.07;;;3.40;;
39264;SDS011;42646;51.910;7.724;2023-09-07T09:17:05;5.13;;;3.33;;
39264;SDS011;42646;51.910;7.724;2023-09-07T09:19:33;5.38;;;3.72;;
39264;SDS011;42646;51.910;7.724;2023-09-07T09:22:03;4.90;;;3.63;;
39264;SDS011;42646;51.910;7.724;2023-09-07T09:24:31;5.57;;;3.90;;
39264;SDS011;42646;51.910;7.724;2023-09-07T09:27:00;4.65;;;3.50;;
39264;SDS011;42646;51.910;7.724;2023-09-07T09:29:28;4.47;;;3.20;;
39264;SDS011;42646;51.910;7.724;2023-09-07T09:31:56;5.47;;;3.70;;
39264;SDS011;42646;51.910;7.724;2023-09-07T09:34:31;4.18;;;3.45;;
39264;SDS011;42646;51.910;7.724;2023-09-07T09:37:03;5.80;;;3.60;;
39264;SDS011;42646;51.910;7.724;2023-09-07T09:39:33;5.13;;;3.80;;
39264;SDS011;42646;51.910;7.724;2023-09-07T09:42:02;5.28;;;3.42;;
39264;SDS011;42646;51.910;7.724;2023-09-07T09:44:31;4.57;;;3.53;;
39264;SDS011;42646;51.910;7.724;2023-09-07T09:46:59;4.75;;;3.72;;
39264;SDS011;42646;51.910;7.724;2023-09-07T09:49:29;4.95;;;3.60;;
39264;SDS011;42646;51.910;7.724;2023-09-07T09:52:00;5.10;;;3.53;;
39264;SDS011;42646;51.910;7.724;2023-09-07T09:54:29;5.38;;;3.63;;
39264;SDS011;42646;51.910;7.724;2023-09-07T09:57:00;5.78;;;3.75;;
39264;SDS011;42646;51.910;7.724;2023-09-07T09:59:30;4.80;;;3.65;;
39264;SDS011;42646;51.910;7.724;2023-09-07T10:01:58;4.97;;;3.40;;
39264;SDS011;42646;51.910;7.724;2023-09-07T10:04:27;4.85;;;3.45;;
39264;SDS011;42646;51.910;7.724;2023-09-07T10:06:58;5.30;;;3.60;;
39264;SDS011;42646;51.910;7.724;2023-09-07T10:09:30;5.97;;;3.65;;
39264;SDS011;42646;51.910;7.724;2023-09-07T10:12:01;5.43;;;3.80;;
39264;SDS011;42646;51.910;7.724;2023-09-07T10:14:37;6.28;;;3.90;;
39264;SDS011;42646;51.910;7.724;2023-09-07T10:17:06;4.72;;;3.50;;
39264;SDS011;42646;51.910;7.724;2023-09-07T10:19:36;4.50;;;3.40;;
39264;SDS011;42646;51.910;7.724;2023-09-07T10:22:06;7.25;;;4.43;;
39264;SDS011;42646;51.910;7.724;2023-09-07T10:24:36;4.80;;;3.70;;
39264;SDS011;42646;51.910;7.724;2023-09-07T10:27:06;5.45;;;3.88;;
39264;SDS011;42646;51.910;7.724;2023-09-07T10:29:43;5.40;;;3.92;;
39264;SDS011;42646;51.910;7.724;2023-09-07T10:32:12;6.45;;;3.55;;
39264;SDS011;42646;51.910;7.724;2023-09-07T10:34:46;4.85;;;3.78;;
39264;SDS011;42646;51.910;7.724;2023-09-07T10:37:14;4.40;;;3.60;;
39264;SDS011;42646;51.910;7.724;2023-09-07T10:39:45;6.55;;;4.00;;
39264;SDS011;42646;51.910;7.724;2023-09-07T10:42:22;7.00;;;4.63;;
39264;SDS011;42646;51.910;7.724;2023-09-07T10:44:53;7.50;;;4.20;;
39264;SDS011;42646;51.910;7.724;2023-09-07T10:47:21;6.57;;;4.90;;
39264;SDS011;42646;51.910;7.724;2023-09-07T10:49:49;15.70;;;11.43;;
39264;SDS011;42646;51.910;7.724;2023-09-07T10:52:17;26.83;;;16.58;;
39264;SDS011;42646;51.910;7.724;2023-09-07T10:54:56;24.67;;;17.73;;
39264;SDS011;42646;51.910;7.724;2023-09-07T10:57:25;21.05;;;15.07;;
39264;SDS011;42646;51.910;7.724;2023-09-07T10:59:53;12.15;;;8.63;;
39264;SDS011;42646;51.910;7.724;2023-09-07T11:02:22;9.77;;;7.68;;
39264;SDS011;42646;51.910;7.724;2023-09-07T11:04:52;8.30;;;6.90;;
39264;SDS011;42646;51.910;7.724;2023-09-07T11:07:20;7.28;;;4.80;;
39264;SDS011;42646;51.910;7.724;2023-09-07T11:09:51;6.43;;;4.70;;
39264;SDS011;42646;51.910;7.724;2023-09-07T11:12:21;4.72;;;3.55;;
39264;SDS011;42646;51.910;7.724;2023-09-07T11:14:48;6.15;;;3.90;;
39264;SDS011;42646;51.910;7.724;2023-09-07T11:17:17;5.03;;;3.90;;
39264;SDS011;42646;51.910;7.724;2023-09-07T11:19:51;4.80;;;3.90;;
39264;SDS011;42646;51.910;7.724;2023-09-07T11:22:21;5.93;;;3.83;;
39264;SDS011;42646;51.910;7.724;2023-09-07T11:24:53;5.25;;;3.72;;
39264;SDS011;42646;51.910;7.724;2023-09-07T11:27:22;4.47;;;3.53;;
39264;SDS011;42646;51.910;7.724;2023-09-07T11:32:20;4.85;;;3.40;;
39264;SDS011;42646;51.910;7.724;2023-09-07T11:34:49;6.47;;;3.60;;
39264;SDS011;42646;51.910;7.724;2023-09-07T11:37:24;4.55;;;3.40;;
39264;SDS011;42646;51.910;7.724;2023-09-07T11:39:55;5.95;;;3.53;;
39264;SDS011;42646;51.910;7.724;2023-09-07T11:42:24;5.25;;;3.45;;
39264;SDS011;42646;51.910;7.724;2023-09-07T11:44:52;4.63;;;3.35;;
39264;SDS011;42646;51.910;7.724;2023-09-07T11:47:20;5.07;;;3.85;;
39264;SDS011;42646;51.910;7.724;2023-09-07T11:49:47;5.28;;;3.58;;
39264;SDS011;42646;51.910;7.724;2023-09-07T11:52:18;5.18;;;3.47;;
39264;SDS011;42646;51.910;7.724;2023-09-07T11:54:46;5.05;;;3.55;;
39264;SDS011;42646;51.910;7.724;2023-09-07T11:57:14;4.75;;;3.35;;
39264;SDS011;42646;51.910;7.724;2023-09-07T11:59:44;6.03;;;3.53;;
39264;SDS011;42646;51.910;7.724;2023-09-07T12:02:24;5.57;;;3.63;;
39264;SDS011;42646;51.910;7.724;2023-09-07T12:04:54;6.10;;;3.40;;
39264;SDS011;42646;51.910;7.724;2023-09-07T12:07:22;4.45;;;3.45;;
39264;SDS011;42646;51.910;7.724;2023-09-07T12:09:49;4.93;;;3.40;;
39264;SDS011;42646;51.910;7.724;2023-09-07T12:12:17;4.45;;;3.40;;
39264;SDS011;42646;51.910;7.724;2023-09-07T12:14:47;4.50;;;3.38;;
39264;SDS011;42646;51.910;7.724;2023-09-07T12:17:16;5.90;;;3.42;;
39264;SDS011;42646;51.910;7.724;2023-09-07T12:19:45;5.63;;;3.38;;
39264;SDS011;42646;51.910;7.724;2023-09-07T12:22:13;4.70;;;3.20;;
39264;SDS011;42646;51.910;7.724;2023-09-07T12:24:40;6.03;;;3.85;;
39264;SDS011;42646;51.910;7.724;2023-09-07T12:27:08;4.93;;;3.63;;
39264;SDS011;42646;51.910;7.724;2023-09-07T12:29:38;7.50;;;3.63;;
39264;SDS011;42646;51.910;7.724;2023-09-07T12:32:09;5.05;;;3.70;;
39264;SDS011;42646;51.910;7.724;2023-09-07T12:34:37;5.90;;;3.33;;
39264;SDS011;42646;51.910;7.724;2023-09-07T12:37:06;4.95;;;3.53;;
39264;SDS011;42646;51.910;7.724;2023-09-07T12:39:34;4.47;;;3.47;;
39264;SDS011;42646;51.910;7.724;2023-09-07T12:42:03;5.78;;;3.55;;
39264;SDS011;42646;51.910;7.724;2023-09-07T12:44:31;4.70;;;3.70;;
39264;SDS011;42646;51.910;7.724;2023-09-07T12:46:59;4.15;;;3.15;;
39264;SDS011;42646;51.910;7.724;2023-09-07T12:49:28;4.75;;;3.42;;
39264;SDS011;42646;51.910;7.724;2023-09-07T12:51:56;5.72;;;3.40;;
39264;SDS011;42646;51.910;7.724;2023-09-07T12:54:24;4.82;;;3.50;;
39264;SDS011;42646;51.910;7.724;2023-09-07T12:56:52;6.72;;;3.67;;
39264;SDS011;42646;51.910;7.724;2023-09-07T12:59:20;5.13;;;3.60;;
39264;SDS011;42646;51.910;7.724;2023-09-07T13:01:48;5.18;;;3.50;;
39264;SDS011;42646;51.910;7.724;2023-09-07T13:04:18;7.75;;;3.47;;
39264;SDS011;42646;51.910;7.724;2023-09-07T13:06:47;5.93;;;3.80;;
39264;SDS011;42646;51.910;7.724;2023-09-07T13:09:15;4.47;;;3.40;;
39264;SDS011;42646;51.910;7.724;2023-09-07T13:11:45;5.40;;;3.50;;
39264;SDS011;42646;51.910;7.724;2023-09-07T13:14:13;4.22;;;3.33;;
39264;SDS011;42646;51.910;7.724;2023-09-07T13:16:42;4.70;;;3.42;;
39264;SDS011;42646;51.910;7.724;2023-09-07T13:19:10;4.95;;;3.78;;
39264;SDS011;42646;51.910;7.724;2023-09-07T13:21:38;6.13;;;3.38;;
39264;SDS011;42646;51.910;7.724;2023-09-07T13:24:07;4.55;;;3.60;;
39264;SDS011;42646;51.910;7.724;2023-09-07T13:26:36;5.38;;;3.70;;
39264;SDS011;42646;51.910;7.724;2023-09-07T13:29:28;5.68;;;3.60;;
39264;SDS011;42646;51.910;7.724;2023-09-07T13:31:57;4.78;;;3.42;;
39264;SDS011;42646;51.910;7.724;2023-09-07T13:34:26;5.07;;;3.55;;
39264;SDS011;42646;51.910;7.724;2023-09-07T13:36:54;5.72;;;4.05;;
39264;SDS011;42646;51.910;7.724;2023-09-07T13:39:23;5.68;;;3.47;;
39264;SDS011;42646;51.910;7.724;2023-09-07T13:41:51;6.88;;;3.55;;
39264;SDS011;42646;51.910;7.724;2023-09-07T13:44:19;5.38;;;3.58;;
39264;SDS011;42646;51.910;7.724;2023-09-07T13:46:47;5.05;;;3.92;;
39264;SDS011;42646;51.910;7.724;2023-09-07T13:49:17;5.40;;;3.40;;
39264;SDS011;42646;51.910;7.724;2023-09-07T13:51:45;4.85;;;3.33;;
39264;SDS011;42646;51.910;7.724;2023-09-07T13:54:15;4.53;;;3.50;;
39264;SDS011;42646;51.910;7.724;2023-09-07T13:56:44;4.60;;;3.83;;
39264;SDS011;42646;51.910;7.724;2023-09-07T13:59:13;4.35;;;3.33;;
39264;SDS011;42646;51.910;7.724;2023-09-07T14:01:40;5.38;;;3.58;;
39264;SDS011;42646;51.910;7.724;2023-09-07T14:04:08;4.65;;;3.80;;
39264;SDS011;42646;51.910;7.724;2023-09-07T14:06:36;4.75;;;3.78;;
39264;SDS011;42646;51.910;7.724;2023-09-07T14:09:04;4.80;;;3.53;;
39264;SDS011;42646;51.910;7.724;2023-09-07T14:11:33;5.07;;;3.42;;
39264;SDS011;42646;51.910;7.724;2023-09-07T14:14:02;5.47;;;3.88;;
39264;SDS011;42646;51.910;7.724;2023-09-07T14:16:31;4.60;;;3.60;;
39264;SDS011;42646;51.910;7.724;2023-09-07T14:19:00;4.40;;;3.60;;
39264;SDS011;42646;51.910;7.724;2023-09-07T14:21:27;5.72;;;3.50;;
39264;SDS011;42646;51.910;7.724;2023-09-07T14:23:55;5.30;;;3.55;;
39264;SDS011;42646;51.910;7.724;2023-09-07T14:26:23;4.25;;;3.45;;
39264;SDS011;42646;51.910;7.724;2023-09-07T14:28:51;4.38;;;3.60;;
39264;SDS011;42646;51.910;7.724;2023-09-07T14:31:21;6.32;;;3.40;;
39264;SDS011;42646;51.910;7.724;2023-09-07T14:33:49;4.38;;;3.53;;
39264;SDS011;42646;51.910;7.724;2023-09-07T14:36:16;4.30;;;3.53;;
39264;SDS011;42646;51.910;7.724;2023-09-07T14:38:45;4.68;;;3.67;;
39264;SDS011;42646;51.910;7.724;2023-09-07T14:41:13;5.97;;;3.80;;
39264;SDS011;42646;51.910;7.724;2023-09-07T14:43:49;4.93;;;3.70;;
39264;SDS011;42646;51.910;7.724;2023-09-07T14:46:43;4.82;;;3.45;;
39264;SDS011;42646;51.910;7.724;2023-09-07T14:49:14;4.20;;;3.47;;
39264;SDS011;42646;51.910;7.724;2023-09-07T14:51:44;4.93;;;3.40;;
39264;SDS011;42646;51.910;7.724;2023-09-07T14:54:13;4.18;;;3.50;;
39264;SDS011;42646;51.910;7.724;2023-09-07T14:56:41;4.68;;;3.67;;
39264;SDS011;42646;51.910;7.724;2023-09-07T14:59:11;4.80;;;3.60;;
39264;SDS011;42646;51.910;7.724;2023-09-07T15:01:39;4.60;;;3.35;;
39264;SDS011;42646;51.910;7.724;2023-09-07T15:04:17;4.68;;;3.75;;
39264;SDS011;42646;51.910;7.724;2023-09-07T15:06:46;5.10;;;3.70;;
39264;SDS011;42646;51.910;7.724;2023-09-07T15:09:14;5.07;;;3.40;;
39264;SDS011;42646;51.910;7.724;2023-09-07T15:11:43;4.70;;;3.22;;
39264;SDS011;42646;51.910;7.724;2023-09-07T15:14:11;4.60;;;3.60;;
39264;SDS011;42646;51.910;7.724;2023-09-07T15:16:40;4.32;;;3.47;;
39264;SDS011;42646;51.910;7.724;2023-09-07T15:19:08;4.40;;;3.50;;
39264;SDS011;42646;51.910;7.724;2023-09-07T15:21:37;4.63;;;3.72;;